sensor_id;sensor_type;location;lat;lon;timestamp;temperature;humidity
76333;DHT22;71254;53.010;6.508;2023-07-29T00:00:56;19.10;89.60
76333;DHT22;71254;53.010;6.508;2023-07-29T00:03:22;19.10;89.80
76333;DHT22;71254;53.010;6.508;2023-07-29T00:05:48;19.10;89.80
76333;DHT22;71254;53.010;6.508;2023-07-29T00:08:13;19.10;89.80
76333;DHT22;71254;53.010;6.508;2023-07-29T00:10:48;19.10;90.00
76333;DHT22;71254;53.010;6.508;2023-07-29T00:13:13;19.10;89.90
76333;DHT22;71254;53.010;6.508;2023-07-29T00:15:39;19.10;89.70
76333;DHT22;71254;53.010;6.508;2023-07-29T00:18:05;19.10;89.90
76333;DHT22;71254;53.010;6.508;2023-07-29T00:20:30;19.10;89.70
76333;DHT22;71254;53.010;6.508;2023-07-29T00:22:56;19.10;89.80
76333;DHT22;71254;53.010;6.508;2023-07-29T00:25:23;19.10;89.50
76333;DHT22;71254;53.010;6.508;2023-07-29T00:27:49;19.10;89.40
76333;DHT22;71254;53.010;6.508;2023-07-29T00:30:14;19.10;89.10
76333;DHT22;71254;53.010;6.508;2023-07-29T00:32:40;19.00;89.30
76333;DHT22;71254;53.010;6.508;2023-07-29T00:35:06;19.00;89.40
76333;DHT22;71254;53.010;6.508;2023-07-29T00:37:32;19.00;89.60
76333;DHT22;71254;53.010;6.508;2023-07-29T00:39:57;18.90;89.70
76333;DHT22;71254;53.010;6.508;2023-07-29T00:42:24;18.90;89.60
76333;DHT22;71254;53.010;6.508;2023-07-29T00:44:49;18.80;89.80
76333;DHT22;71254;53.010;6.508;2023-07-29T00:47:16;18.80;89.90
76333;DHT22;71254;53.010;6.508;2023-07-29T00:49:43;18.70;90.00
76333;DHT22;71254;53.010;6.508;2023-07-29T00:52:09;18.70;90.00
76333;DHT22;71254;53.010;6.508;2023-07-29T00:54:38;18.70;90.00
76333;DHT22;71254;53.010;6.508;2023-07-29T00:57:04;18.60;90.00
76333;DHT22;71254;53.010;6.508;2023-07-29T00:59:30;18.60;90.10
76333;DHT22;71254;53.010;6.508;2023-07-29T01:01:57;18.60;90.20
76333;DHT22;71254;53.010;6.508;2023-07-29T01:04:23;18.50;90.20
76333;DHT22;71254;53.010;6.508;2023-07-29T01:07:17;18.50;90.20
76333;DHT22;71254;53.010;6.508;2023-07-29T01:10:19;18.40;90.20
76333;DHT22;71254;53.010;6.508;2023-07-29T01:15:33;18.30;90.40
76333;DHT22;71254;53.010;6.508;2023-07-29T01:18:28;18.30;90.40
76333;DHT22;71254;53.010;6.508;2023-07-29T01:20:59;18.20;90.60
76333;DHT22;71254;53.010;6.508;2023-07-29T01:23:33;18.20;90.40
76333;DHT22;71254;53.010;6.508;2023-07-29T01:25:59;18.20;90.60
76333;DHT22;71254;53.010;6.508;2023-07-29T01:28:25;18.20;90.70
76333;DHT22;71254;53.010;6.508;2023-07-29T01:31:40;18.10;90.80
76333;DHT22;71254;53.010;6.508;2023-07-29T01:36:34;18.00;91.00
76333;DHT22;71254;53.010;6.508;2023-07-29T01:39:05;18.00;91.10
76333;DHT22;71254;53.010;6.508;2023-07-29T01:41:31;18.00;91.00
76333;DHT22;71254;53.010;6.508;2023-07-29T01:43:57;18.00;91.10
76333;DHT22;71254;53.010;6.508;2023-07-29T01:46:23;17.90;91.00
76333;DHT22;71254;53.010;6.508;2023-07-29T01:48:48;17.90;91.00
76333;DHT22;71254;53.010;6.508;2023-07-29T01:51:14;17.80;91.00
76333;DHT22;71254;53.010;6.508;2023-07-29T01:53:40;17.80;91.00
76333;DHT22;71254;53.010;6.508;2023-07-29T01:56:05;17.80;91.10
76333;DHT22;71254;53.010;6.508;2023-07-29T01:58:31;17.80;91.20
76333;DHT22;71254;53.010;6.508;2023-07-29T02:00:57;17.80;91.30
76333;DHT22;71254;53.010;6.508;2023-07-29T02:03:22;17.80;91.30
76333;DHT22;71254;53.010;6.508;2023-07-29T02:05:48;17.80;91.40
76333;DHT22;71254;53.010;6.508;2023-07-29T02:08:13;17.80;91.50
76333;DHT22;71254;53.010;6.508;2023-07-29T02:10:39;17.80;91.50
76333;DHT22;71254;53.010;6.508;2023-07-29T02:13:05;17.80;91.40
76333;DHT22;71254;53.010;6.508;2023-07-29T02:15:30;17.80;91.30
76333;DHT22;71254;53.010;6.508;2023-07-29T02:17:56;17.80;91.30
76333;DHT22;71254;53.010;6.508;2023-07-29T02:20:22;17.80;91.40
76333;DHT22;71254;53.010;6.508;2023-07-29T02:22:47;17.70;91.40
76333;DHT22;71254;53.010;6.508;2023-07-29T02:25:14;17.70;91.50
76333;DHT22;71254;53.010;6.508;2023-07-29T02:27:39;17.70;91.50
76333;DHT22;71254;53.010;6.508;2023-07-29T02:30:06;17.60;91.40
76333;DHT22;71254;53.010;6.508;2023-07-29T02:32:32;17.60;91.50
76333;DHT22;71254;53.010;6.508;2023-07-29T02:34:57;17.60;91.40
76333;DHT22;71254;53.010;6.508;2023-07-29T02:37:23;17.60;91.50
76333;DHT22;71254;53.010;6.508;2023-07-29T02:39:48;17.50;91.60
76333;DHT22;71254;53.010;6.508;2023-07-29T02:42:14;17.50;91.60
76333;DHT22;71254;53.010;6.508;2023-07-29T02:44:40;17.50;91.50
76333;DHT22;71254;53.010;6.508;2023-07-29T02:47:06;17.50;91.80
76333;DHT22;71254;53.010;6.508;2023-07-29T02:49:31;17.50;91.70
76333;DHT22;71254;53.010;6.508;2023-07-29T02:51:57;17.50;91.70
76333;DHT22;71254;53.010;6.508;2023-07-29T02:54:22;17.50;91.80
76333;DHT22;71254;53.010;6.508;2023-07-29T02:56:50;17.50;91.60
76333;DHT22;71254;53.010;6.508;2023-07-29T02:59:15;17.40;91.70
76333;DHT22;71254;53.010;6.508;2023-07-29T03:01:41;17.40;91.80
76333;DHT22;71254;53.010;6.508;2023-07-29T03:04:07;17.40;91.70
76333;DHT22;71254;53.010;6.508;2023-07-29T03:06:33;17.40;91.70
76333;DHT22;71254;53.010;6.508;2023-07-29T03:08:59;17.30;91.60
76333;DHT22;71254;53.010;6.508;2023-07-29T03:11:24;17.30;91.60
76333;DHT22;71254;53.010;6.508;2023-07-29T03:13:50;17.30;91.70
76333;DHT22;71254;53.010;6.508;2023-07-29T03:16:16;17.30;91.90
76333;DHT22;71254;53.010;6.508;2023-07-29T03:18:43;17.20;91.90
76333;DHT22;71254;53.010;6.508;2023-07-29T03:21:10;17.20;91.90
76333;DHT22;71254;53.010;6.508;2023-07-29T03:23:36;17.20;91.80
76333;DHT22;71254;53.010;6.508;2023-07-29T03:26:03;17.20;92.30
76333;DHT22;71254;53.010;6.508;2023-07-29T03:28:36;17.10;92.00
76333;DHT22;71254;53.010;6.508;2023-07-29T03:31:02;17.10;92.00
76333;DHT22;71254;53.010;6.508;2023-07-29T03:33:28;17.10;92.00
76333;DHT22;71254;53.010;6.508;2023-07-29T03:35:54;17.10;92.00
76333;DHT22;71254;53.010;6.508;2023-07-29T03:38:20;17.10;92.10
76333;DHT22;71254;53.010;6.508;2023-07-29T03:40:45;17.10;92.10
76333;DHT22;71254;53.010;6.508;2023-07-29T03:43:11;17.10;92.20
76333;DHT22;71254;53.010;6.508;2023-07-29T03:45:37;17.10;92.10
76333;DHT22;71254;53.010;6.508;2023-07-29T03:48:04;17.10;92.20
76333;DHT22;71254;53.010;6.508;2023-07-29T03:50:30;17.10;92.20
76333;DHT22;71254;53.010;6.508;2023-07-29T03:52:56;17.10;92.10
76333;DHT22;71254;53.010;6.508;2023-07-29T03:55:22;17.10;92.10
76333;DHT22;71254;53.010;6.508;2023-07-29T03:57:47;17.10;92.00
76333;DHT22;71254;53.010;6.508;2023-07-29T04:00:13;17.10;92.10
76333;DHT22;71254;53.010;6.508;2023-07-29T04:02:41;17.10;92.10
76333;DHT22;71254;53.010;6.508;2023-07-29T04:05:07;17.10;92.10
76333;DHT22;71254;53.010;6.508;2023-07-29T04:07:34;17.10;92.20
76333;DHT22;71254;53.010;6.508;2023-07-29T04:10:00;17.00;92.20
76333;DHT22;71254;53.010;6.508;2023-07-29T04:12:26;17.10;92.30
76333;DHT22;71254;53.010;6.508;2023-07-29T04:14:52;17.10;92.30
76333;DHT22;71254;53.010;6.508;2023-07-29T04:17:18;17.10;92.30
76333;DHT22;71254;53.010;6.508;2023-07-29T04:19:43;17.10;92.30
76333;DHT22;71254;53.010;6.508;2023-07-29T04:22:09;17.10;92.40
76333;DHT22;71254;53.010;6.508;2023-07-29T04:24:35;17.10;92.30
76333;DHT22;71254;53.010;6.508;2023-07-29T04:27:00;17.10;92.30
76333;DHT22;71254;53.010;6.508;2023-07-29T04:29:26;17.10;92.30
76333;DHT22;71254;53.010;6.508;2023-07-29T04:31:52;17.10;92.40
76333;DHT22;71254;53.010;6.508;2023-07-29T04:34:18;17.10;92.30
76333;DHT22;71254;53.010;6.508;2023-07-29T04:36:47;17.10;92.30
76333;DHT22;71254;53.010;6.508;2023-07-29T04:39:13;17.20;92.30
76333;DHT22;71254;53.010;6.508;2023-07-29T04:41:39;17.20;92.20
76333;DHT22;71254;53.010;6.508;2023-07-29T04:44:05;17.30;92.30
76333;DHT22;71254;53.010;6.508;2023-07-29T04:46:31;17.30;92.20
76333;DHT22;71254;53.010;6.508;2023-07-29T04:48:56;17.30;92.10
76333;DHT22;71254;53.010;6.508;2023-07-29T04:51:23;17.30;92.10
76333;DHT22;71254;53.010;6.508;2023-07-29T04:53:49;17.40;92.10
76333;DHT22;71254;53.010;6.508;2023-07-29T04:56:14;17.40;92.10
76333;DHT22;71254;53.010;6.508;2023-07-29T04:58:40;17.40;92.00
76333;DHT22;71254;53.010;6.508;2023-07-29T05:01:06;17.40;91.90
76333;DHT22;71254;53.010;6.508;2023-07-29T05:03:31;17.40;91.80
76333;DHT22;71254;53.010;6.508;2023-07-29T05:05:58;17.50;91.80
76333;DHT22;71254;53.010;6.508;2023-07-29T05:08:28;17.50;91.80
76333;DHT22;71254;53.010;6.508;2023-07-29T05:10:53;17.50;91.70
76333;DHT22;71254;53.010;6.508;2023-07-29T05:13:20;17.50;91.70
76333;DHT22;71254;53.010;6.508;2023-07-29T05:15:47;17.50;91.70
76333;DHT22;71254;53.010;6.508;2023-07-29T05:18:14;17.50;91.60
76333;DHT22;71254;53.010;6.508;2023-07-29T05:20:40;17.50;91.70
76333;DHT22;71254;53.010;6.508;2023-07-29T05:23:05;17.50;91.70
76333;DHT22;71254;53.010;6.508;2023-07-29T05:25:31;17.60;91.80
76333;DHT22;71254;53.010;6.508;2023-07-29T05:27:57;17.60;91.70
76333;DHT22;71254;53.010;6.508;2023-07-29T05:30:22;17.60;91.60
76333;DHT22;71254;53.010;6.508;2023-07-29T05:32:48;17.60;91.40
76333;DHT22;71254;53.010;6.508;2023-07-29T05:35:14;17.60;91.40
76333;DHT22;71254;53.010;6.508;2023-07-29T05:37:40;17.70;91.50
76333;DHT22;71254;53.010;6.508;2023-07-29T05:40:07;17.70;91.50
76333;DHT22;71254;53.010;6.508;2023-07-29T05:42:34;17.70;91.40
76333;DHT22;71254;53.010;6.508;2023-07-29T05:44:59;17.70;91.40
76333;DHT22;71254;53.010;6.508;2023-07-29T05:47:25;17.80;91.40
76333;DHT22;71254;53.010;6.508;2023-07-29T05:49:51;17.80;91.30
76333;DHT22;71254;53.010;6.508;2023-07-29T05:52:17;17.80;91.20
76333;DHT22;71254;53.010;6.508;2023-07-29T05:54:43;17.80;91.20
76333;DHT22;71254;53.010;6.508;2023-07-29T05:57:12;17.80;91.20
76333;DHT22;71254;53.010;6.508;2023-07-29T05:59:38;17.80;91.20
76333;DHT22;71254;53.010;6.508;2023-07-29T06:02:04;17.80;91.10
76333;DHT22;71254;53.010;6.508;2023-07-29T06:04:30;17.80;91.10
76333;DHT22;71254;53.010;6.508;2023-07-29T06:06:55;17.80;91.00
76333;DHT22;71254;53.010;6.508;2023-07-29T06:09:22;17.90;91.00
76333;DHT22;71254;53.010;6.508;2023-07-29T06:11:48;17.80;90.90
76333;DHT22;71254;53.010;6.508;2023-07-29T06:14:13;17.80;91.00
76333;DHT22;71254;53.010;6.508;2023-07-29T06:16:39;18.00;91.10
76333;DHT22;71254;53.010;6.508;2023-07-29T06:19:04;18.00;91.00
76333;DHT22;71254;53.010;6.508;2023-07-29T06:21:30;18.00;90.80
76333;DHT22;71254;53.010;6.508;2023-07-29T06:23:56;18.10;90.80
76333;DHT22;71254;53.010;6.508;2023-07-29T06:26:22;18.20;90.90
76333;DHT22;71254;53.010;6.508;2023-07-29T06:28:47;18.30;91.00
76333;DHT22;71254;53.010;6.508;2023-07-29T06:31:13;18.50;91.20
76333;DHT22;71254;53.010;6.508;2023-07-29T06:33:38;18.90;90.90
76333;DHT22;71254;53.010;6.508;2023-07-29T06:36:04;19.40;90.40
76333;DHT22;71254;53.010;6.508;2023-07-29T06:38:30;19.80;90.10
76333;DHT22;71254;53.010;6.508;2023-07-29T06:40:56;20.10;88.30
76333;DHT22;71254;53.010;6.508;2023-07-29T06:43:21;20.20;87.90
76333;DHT22;71254;53.010;6.508;2023-07-29T06:45:47;20.20;87.70
76333;DHT22;71254;53.010;6.508;2023-07-29T06:48:13;20.10;87.00
76333;DHT22;71254;53.010;6.508;2023-07-29T06:50:38;20.10;86.80
76333;DHT22;71254;53.010;6.508;2023-07-29T06:53:04;20.10;87.10
76333;DHT22;71254;53.010;6.508;2023-07-29T06:55:29;20.10;87.20
76333;DHT22;71254;53.010;6.508;2023-07-29T06:57:55;20.10;86.80
76333;DHT22;71254;53.010;6.508;2023-07-29T07:00:21;20.10;86.80
76333;DHT22;71254;53.010;6.508;2023-07-29T07:02:46;20.10;87.00
76333;DHT22;71254;53.010;6.508;2023-07-29T07:05:12;20.20;86.30
76333;DHT22;71254;53.010;6.508;2023-07-29T07:07:37;20.30;86.40
76333;DHT22;71254;53.010;6.508;2023-07-29T07:10:03;20.40;86.80
76333;DHT22;71254;53.010;6.508;2023-07-29T07:12:29;20.50;85.80
76333;DHT22;71254;53.010;6.508;2023-07-29T07:14:55;20.50;85.60
76333;DHT22;71254;53.010;6.508;2023-07-29T07:17:20;20.40;85.20
76333;DHT22;71254;53.010;6.508;2023-07-29T07:19:46;20.30;85.70
76333;DHT22;71254;53.010;6.508;2023-07-29T07:22:12;20.30;85.50
76333;DHT22;71254;53.010;6.508;2023-07-29T07:24:37;20.40;85.50
76333;DHT22;71254;53.010;6.508;2023-07-29T07:27:03;20.40;85.20
76333;DHT22;71254;53.010;6.508;2023-07-29T07:29:29;20.50;85.30
76333;DHT22;71254;53.010;6.508;2023-07-29T07:31:56;20.50;85.20
76333;DHT22;71254;53.010;6.508;2023-07-29T07:34:22;20.50;85.00
76333;DHT22;71254;53.010;6.508;2023-07-29T07:36:48;20.60;84.70
76333;DHT22;71254;53.010;6.508;2023-07-29T07:39:14;20.60;85.10
76333;DHT22;71254;53.010;6.508;2023-07-29T07:41:41;20.70;84.80
76333;DHT22;71254;53.010;6.508;2023-07-29T07:44:06;20.80;84.30
76333;DHT22;71254;53.010;6.508;2023-07-29T07:46:32;20.90;84.30
76333;DHT22;71254;53.010;6.508;2023-07-29T07:48:59;21.10;84.20
76333;DHT22;71254;53.010;6.508;2023-07-29T07:51:24;21.20;83.20
76333;DHT22;71254;53.010;6.508;2023-07-29T07:53:50;21.20;82.50
76333;DHT22;71254;53.010;6.508;2023-07-29T07:56:15;21.20;82.60
76333;DHT22;71254;53.010;6.508;2023-07-29T07:58:41;21.20;82.40
76333;DHT22;71254;53.010;6.508;2023-07-29T08:01:08;21.20;82.00
76333;DHT22;71254;53.010;6.508;2023-07-29T08:03:34;21.20;82.20
76333;DHT22;71254;53.010;6.508;2023-07-29T08:06:00;21.20;81.50
76333;DHT22;71254;53.010;6.508;2023-07-29T08:08:27;21.20;81.40
76333;DHT22;71254;53.010;6.508;2023-07-29T08:10:53;21.20;81.50
76333;DHT22;71254;53.010;6.508;2023-07-29T08:13:20;21.30;82.10
76333;DHT22;71254;53.010;6.508;2023-07-29T08:15:51;21.40;82.20
76333;DHT22;71254;53.010;6.508;2023-07-29T08:18:17;21.70;81.40
76333;DHT22;71254;53.010;6.508;2023-07-29T08:20:56;21.90;81.10
76333;DHT22;71254;53.010;6.508;2023-07-29T08:23:24;22.20;81.50
76333;DHT22;71254;53.010;6.508;2023-07-29T08:25:56;22.70;80.40
76333;DHT22;71254;53.010;6.508;2023-07-29T08:28:27;23.10;79.40
76333;DHT22;71254;53.010;6.508;2023-07-29T08:30:52;23.60;78.20
76333;DHT22;71254;53.010;6.508;2023-07-29T08:33:18;23.80;76.90
76333;DHT22;71254;53.010;6.508;2023-07-29T08:35:43;23.90;75.00
76333;DHT22;71254;53.010;6.508;2023-07-29T08:38:09;23.80;73.30
76333;DHT22;71254;53.010;6.508;2023-07-29T08:40:35;23.70;73.30
76333;DHT22;71254;53.010;6.508;2023-07-29T08:43:06;23.70;73.00
76333;DHT22;71254;53.010;6.508;2023-07-29T08:45:34;23.70;72.70
76333;DHT22;71254;53.010;6.508;2023-07-29T08:48:02;23.40;71.30
76333;DHT22;71254;53.010;6.508;2023-07-29T08:50:32;23.20;73.30
76333;DHT22;71254;53.010;6.508;2023-07-29T08:52:59;22.80;73.70
76333;DHT22;71254;53.010;6.508;2023-07-29T08:55:26;22.70;74.20
76333;DHT22;71254;53.010;6.508;2023-07-29T08:57:52;22.60;74.60
76333;DHT22;71254;53.010;6.508;2023-07-29T09:00:19;22.70;74.90
76333;DHT22;71254;53.010;6.508;2023-07-29T09:02:45;22.80;74.10
76333;DHT22;71254;53.010;6.508;2023-07-29T09:05:10;22.90;74.30
76333;DHT22;71254;53.010;6.508;2023-07-29T09:07:36;23.10;73.70
76333;DHT22;71254;53.010;6.508;2023-07-29T09:10:02;23.30;73.50
76333;DHT22;71254;53.010;6.508;2023-07-29T09:12:28;23.40;72.70
76333;DHT22;71254;53.010;6.508;2023-07-29T09:14:53;23.50;73.30
76333;DHT22;71254;53.010;6.508;2023-07-29T09:17:20;23.80;72.50
76333;DHT22;71254;53.010;6.508;2023-07-29T09:19:50;23.90;71.60
76333;DHT22;71254;53.010;6.508;2023-07-29T09:22:21;24.10;70.80
76333;DHT22;71254;53.010;6.508;2023-07-29T09:24:47;23.90;70.10
76333;DHT22;71254;53.010;6.508;2023-07-29T09:27:24;23.80;70.40
76333;DHT22;71254;53.010;6.508;2023-07-29T09:29:49;23.80;69.90
76333;DHT22;71254;53.010;6.508;2023-07-29T09:32:22;23.90;70.50
76333;DHT22;71254;53.010;6.508;2023-07-29T09:34:48;24.30;69.90
76333;DHT22;71254;53.010;6.508;2023-07-29T09:37:21;24.60;69.30
76333;DHT22;71254;53.010;6.508;2023-07-29T09:39:48;24.80;67.90
76333;DHT22;71254;53.010;6.508;2023-07-29T09:42:21;24.90;68.10
76333;DHT22;71254;53.010;6.508;2023-07-29T09:44:50;25.30;67.50
76333;DHT22;71254;53.010;6.508;2023-07-29T09:47:23;25.70;65.90
76333;DHT22;71254;53.010;6.508;2023-07-29T09:49:49;25.80;64.30
76333;DHT22;71254;53.010;6.508;2023-07-29T09:52:19;26.00;65.20
76333;DHT22;71254;53.010;6.508;2023-07-29T09:54:46;26.20;63.80
76333;DHT22;71254;53.010;6.508;2023-07-29T09:57:14;26.40;63.40
76333;DHT22;71254;53.010;6.508;2023-07-29T09:59:40;26.60;63.10
76333;DHT22;71254;53.010;6.508;2023-07-29T10:02:16;26.50;60.90
76333;DHT22;71254;53.010;6.508;2023-07-29T10:04:42;26.40;59.60
76333;DHT22;71254;53.010;6.508;2023-07-29T10:07:12;26.30;61.00
76333;DHT22;71254;53.010;6.508;2023-07-29T10:09:39;26.00;60.40
76333;DHT22;71254;53.010;6.508;2023-07-29T10:12:06;25.80;61.30
76333;DHT22;71254;53.010;6.508;2023-07-29T10:14:38;25.70;61.50
76333;DHT22;71254;53.010;6.508;2023-07-29T10:17:05;25.90;62.40
76333;DHT22;71254;53.010;6.508;2023-07-29T10:19:31;25.90;62.50
76333;DHT22;71254;53.010;6.508;2023-07-29T10:21:59;25.80;62.10
76333;DHT22;71254;53.010;6.508;2023-07-29T10:24:30;25.50;61.90
76333;DHT22;71254;53.010;6.508;2023-07-29T10:26:59;25.30;62.40
76333;DHT22;71254;53.010;6.508;2023-07-29T10:29:29;25.20;62.70
76333;DHT22;71254;53.010;6.508;2023-07-29T10:31:57;25.30;63.00
76333;DHT22;71254;53.010;6.508;2023-07-29T10:34:24;25.60;63.40
76333;DHT22;71254;53.010;6.508;2023-07-29T10:36:50;25.70;62.00
76333;DHT22;71254;53.010;6.508;2023-07-29T10:39:16;25.60;61.70
76333;DHT22;71254;53.010;6.508;2023-07-29T10:41:59;25.60;61.50
76333;DHT22;71254;53.010;6.508;2023-07-29T10:44:57;25.40;59.90
76333;DHT22;71254;53.010;6.508;2023-07-29T10:47:28;25.00;61.50
76333;DHT22;71254;53.010;6.508;2023-07-29T10:49:58;24.90;63.00
76333;DHT22;71254;53.010;6.508;2023-07-29T10:54:59;24.70;63.20
76333;DHT22;71254;53.010;6.508;2023-07-29T10:57:37;24.40;65.30
76333;DHT22;71254;53.010;6.508;2023-07-29T11:00:05;24.00;68.50
76333;DHT22;71254;53.010;6.508;2023-07-29T11:02:39;23.60;69.70
76333;DHT22;71254;53.010;6.508;2023-07-29T11:05:18;23.30;71.80
76333;DHT22;71254;53.010;6.508;2023-07-29T11:07:48;23.40;73.70
76333;DHT22;71254;53.010;6.508;2023-07-29T11:10:14;23.70;74.10
76333;DHT22;71254;53.010;6.508;2023-07-29T11:12:47;23.90;71.50
76333;DHT22;71254;53.010;6.508;2023-07-29T11:15:15;24.00;70.20
76333;DHT22;71254;53.010;6.508;2023-07-29T11:17:46;23.90;67.60
76333;DHT22;71254;53.010;6.508;2023-07-29T11:20:13;23.70;67.20
76333;DHT22;71254;53.010;6.508;2023-07-29T11:22:40;23.50;67.40
76333;DHT22;71254;53.010;6.508;2023-07-29T11:25:07;23.40;69.00
76333;DHT22;71254;53.010;6.508;2023-07-29T11:27:33;23.40;69.60
76333;DHT22;71254;53.010;6.508;2023-07-29T11:30:00;23.50;69.30
76333;DHT22;71254;53.010;6.508;2023-07-29T11:32:27;23.70;70.00
76333;DHT22;71254;53.010;6.508;2023-07-29T11:34:53;24.30;69.10
76333;DHT22;71254;53.010;6.508;2023-07-29T11:37:19;24.60;67.70
76333;DHT22;71254;53.010;6.508;2023-07-29T11:39:46;24.90;66.40
76333;DHT22;71254;53.010;6.508;2023-07-29T11:42:13;25.20;66.00
76333;DHT22;71254;53.010;6.508;2023-07-29T11:44:39;25.40;64.90
76333;DHT22;71254;53.010;6.508;2023-07-29T11:47:08;25.50;64.20
76333;DHT22;71254;53.010;6.508;2023-07-29T11:49:35;25.60;63.30
76333;DHT22;71254;53.010;6.508;2023-07-29T11:52:02;25.60;62.60
76333;DHT22;71254;53.010;6.508;2023-07-29T11:54:28;25.60;62.30
76333;DHT22;71254;53.010;6.508;2023-07-29T11:56:53;25.60;61.80
76333;DHT22;71254;53.010;6.508;2023-07-29T11:59:20;25.40;61.30
76333;DHT22;71254;53.010;6.508;2023-07-29T12:01:46;24.90;61.60
76333;DHT22;71254;53.010;6.508;2023-07-29T12:04:12;24.40;62.90
76333;DHT22;71254;53.010;6.508;2023-07-29T12:06:38;24.20;63.90
76333;DHT22;71254;53.010;6.508;2023-07-29T12:09:04;24.00;64.60
76333;DHT22;71254;53.010;6.508;2023-07-29T12:11:30;23.90;64.80
76333;DHT22;71254;53.010;6.508;2023-07-29T12:13:56;23.90;65.70
76333;DHT22;71254;53.010;6.508;2023-07-29T12:16:21;23.90;66.60
76333;DHT22;71254;53.010;6.508;2023-07-29T12:18:50;24.20;65.90
76333;DHT22;71254;53.010;6.508;2023-07-29T12:21:15;24.50;64.80
76333;DHT22;71254;53.010;6.508;2023-07-29T12:23:41;24.70;64.10
76333;DHT22;71254;53.010;6.508;2023-07-29T12:26:06;25.00;64.50
76333;DHT22;71254;53.010;6.508;2023-07-29T12:28:32;25.40;63.50
76333;DHT22;71254;53.010;6.508;2023-07-29T12:30:58;25.40;62.60
76333;DHT22;71254;53.010;6.508;2023-07-29T12:33:37;25.20;61.80
76333;DHT22;71254;53.010;6.508;2023-07-29T12:36:07;25.00;61.40
76333;DHT22;71254;53.010;6.508;2023-07-29T12:38:33;24.70;61.60
76333;DHT22;71254;53.010;6.508;2023-07-29T12:40:58;25.00;63.20
76333;DHT22;71254;53.010;6.508;2023-07-29T12:43:25;25.30;62.30
76333;DHT22;71254;53.010;6.508;2023-07-29T12:45:50;25.80;61.10
76333;DHT22;71254;53.010;6.508;2023-07-29T12:48:16;26.00;61.00
76333;DHT22;71254;53.010;6.508;2023-07-29T12:50:42;26.20;59.70
76333;DHT22;71254;53.010;6.508;2023-07-29T12:53:09;26.60;59.70
76333;DHT22;71254;53.010;6.508;2023-07-29T12:55:38;27.20;59.90
76333;DHT22;71254;53.010;6.508;2023-07-29T12:58:04;27.60;57.80
76333;DHT22;71254;53.010;6.508;2023-07-29T13:00:30;27.40;56.90
76333;DHT22;71254;53.010;6.508;2023-07-29T13:02:55;27.00;56.30
76333;DHT22;71254;53.010;6.508;2023-07-29T13:05:21;26.90;56.80
76333;DHT22;71254;53.010;6.508;2023-07-29T13:07:47;26.90;57.80
76333;DHT22;71254;53.010;6.508;2023-07-29T13:10:12;27.10;57.20
76333;DHT22;71254;53.010;6.508;2023-07-29T13:12:39;26.90;57.30
76333;DHT22;71254;53.010;6.508;2023-07-29T13:15:05;26.60;56.80
76333;DHT22;71254;53.010;6.508;2023-07-29T13:17:31;26.50;56.30
76333;DHT22;71254;53.010;6.508;2023-07-29T13:19:56;26.80;57.00
76333;DHT22;71254;53.010;6.508;2023-07-29T13:22:22;27.40;56.50
76333;DHT22;71254;53.010;6.508;2023-07-29T13:24:47;27.90;55.40
76333;DHT22;71254;53.010;6.508;2023-07-29T13:27:13;27.60;54.10
76333;DHT22;71254;53.010;6.508;2023-07-29T13:29:39;27.20;53.90
76333;DHT22;71254;53.010;6.508;2023-07-29T13:32:05;27.10;54.20
76333;DHT22;71254;53.010;6.508;2023-07-29T13:34:31;27.50;54.00
76333;DHT22;71254;53.010;6.508;2023-07-29T13:36:57;27.90;52.30
76333;DHT22;71254;53.010;6.508;2023-07-29T13:39:22;28.30;51.20
76333;DHT22;71254;53.010;6.508;2023-07-29T13:41:48;28.70;50.20
76333;DHT22;71254;53.010;6.508;2023-07-29T13:44:14;29.10;49.80
76333;DHT22;71254;53.010;6.508;2023-07-29T13:46:39;29.40;48.40
76333;DHT22;71254;53.010;6.508;2023-07-29T13:49:05;29.30;47.80
76333;DHT22;71254;53.010;6.508;2023-07-29T13:51:30;28.80;48.00
76333;DHT22;71254;53.010;6.508;2023-07-29T13:53:56;28.50;48.80
76333;DHT22;71254;53.010;6.508;2023-07-29T13:56:22;28.20;49.00
76333;DHT22;71254;53.010;6.508;2023-07-29T13:58:48;28.30;49.10
76333;DHT22;71254;53.010;6.508;2023-07-29T14:01:13;28.50;48.90
76333;DHT22;71254;53.010;6.508;2023-07-29T14:03:39;28.50;48.20
76333;DHT22;71254;53.010;6.508;2023-07-29T14:06:04;28.50;49.10
76333;DHT22;71254;53.010;6.508;2023-07-29T14:08:30;28.90;49.60
76333;DHT22;71254;53.010;6.508;2023-07-29T14:10:56;28.80;49.30
76333;DHT22;71254;53.010;6.508;2023-07-29T14:13:21;28.80;48.20
76333;DHT22;71254;53.010;6.508;2023-07-29T14:15:47;28.20;48.40
76333;DHT22;71254;53.010;6.508;2023-07-29T14:18:13;28.30;49.10
76333;DHT22;71254;53.010;6.508;2023-07-29T14:20:38;28.80;48.30
76333;DHT22;71254;53.010;6.508;2023-07-29T14:23:04;29.30;47.10
76333;DHT22;71254;53.010;6.508;2023-07-29T14:25:30;29.70;46.50
76333;DHT22;71254;53.010;6.508;2023-07-29T14:27:56;30.20;46.40
76333;DHT22;71254;53.010;6.508;2023-07-29T14:30:21;30.20;46.30
76333;DHT22;71254;53.010;6.508;2023-07-29T14:32:48;30.30;45.70
76333;DHT22;71254;53.010;6.508;2023-07-29T14:35:14;30.00;45.70
76333;DHT22;71254;53.010;6.508;2023-07-29T14:37:39;29.70;46.60
76333;DHT22;71254;53.010;6.508;2023-07-29T14:40:05;29.70;46.40
76333;DHT22;71254;53.010;6.508;2023-07-29T14:42:31;29.60;46.70
76333;DHT22;71254;53.010;6.508;2023-07-29T14:44:57;29.50;46.40
76333;DHT22;71254;53.010;6.508;2023-07-29T14:47:22;29.50;46.30
76333;DHT22;71254;53.010;6.508;2023-07-29T14:49:48;30.00;46.00
76333;DHT22;71254;53.010;6.508;2023-07-29T14:52:14;30.50;45.50
76333;DHT22;71254;53.010;6.508;2023-07-29T14:54:39;30.90;45.00
76333;DHT22;71254;53.010;6.508;2023-07-29T14:57:06;31.10;43.70
76333;DHT22;71254;53.010;6.508;2023-07-29T14:59:32;31.00;43.40
76333;DHT22;71254;53.010;6.508;2023-07-29T15:01:58;30.80;44.30
76333;DHT22;71254;53.010;6.508;2023-07-29T15:04:24;31.00;44.70
76333;DHT22;71254;53.010;6.508;2023-07-29T15:06:50;30.90;44.50
76333;DHT22;71254;53.010;6.508;2023-07-29T15:09:16;31.20;44.30
76333;DHT22;71254;53.010;6.508;2023-07-29T15:11:41;31.70;43.90
76333;DHT22;71254;53.010;6.508;2023-07-29T15:14:07;31.30;43.20
76333;DHT22;71254;53.010;6.508;2023-07-29T15:16:33;31.10;44.00
76333;DHT22;71254;53.010;6.508;2023-07-29T15:19:03;31.50;43.80
76333;DHT22;71254;53.010;6.508;2023-07-29T15:21:29;31.90;43.60
76333;DHT22;71254;53.010;6.508;2023-07-29T15:23:55;32.20;43.10
76333;DHT22;71254;53.010;6.508;2023-07-29T15:26:21;32.10;42.50
76333;DHT22;71254;53.010;6.508;2023-07-29T15:28:46;31.60;42.80
76333;DHT22;71254;53.010;6.508;2023-07-29T15:31:15;31.70;43.00
76333;DHT22;71254;53.010;6.508;2023-07-29T15:33:41;32.00;42.50
76333;DHT22;71254;53.010;6.508;2023-07-29T15:36:06;32.10;41.90